sensor_id;sensor_type;location;lat;lon;timestamp;P1;durP1;ratioP1;P2;durP2;ratioP2
146;SDS011;45999;48.808;9.182;2023-02-26T00:01:20;3.40;;;1.60;;
146;SDS011;45999;48.808;9.182;2023-02-26T00:03:51;2.07;;;1.60;;
146;SDS011;45999;48.808;9.182;2023-02-26T00:06:19;3.37;;;1.87;;
146;SDS011;45999;48.808;9.182;2023-02-26T00:08:47;2.60;;;2.00;;
146;SDS011;45999;48.808;9.182;2023-02-26T00:11:13;3.27;;;1.50;;
146;SDS011;45999;48.808;9.182;2023-02-26T00:13:41;2.93;;;1.80;;
146;SDS011;45999;48.808;9.182;2023-02-26T00:16:12;3.50;;;1.80;;
146;SDS011;45999;48.808;9.182;2023-02-26T00:18:43;2.00;;;1.80;;
146;SDS011;45999;48.808;9.182;2023-02-26T00:21:14;3.43;;;1.80;;
146;SDS011;45999;48.808;9.182;2023-02-26T00:23:42;2.60;;;1.70;;
146;SDS011;45999;48.808;9.182;2023-02-26T00:26:09;3.20;;;1.67;;
146;SDS011;45999;48.808;9.182;2023-02-26T00:28:36;3.37;;;1.50;;
146;SDS011;45999;48.808;9.182;2023-02-26T00:31:02;4.60;;;1.90;;
146;SDS011;45999;48.808;9.182;2023-02-26T00:33:29;2.47;;;1.53;;
146;SDS011;45999;48.808;9.182;2023-02-26T00:35:59;3.07;;;1.43;;
146;SDS011;45999;48.808;9.182;2023-02-26T00:38:38;4.23;;;2.00;;
146;SDS011;45999;48.808;9.182;2023-02-26T00:41:08;4.17;;;1.80;;
146;SDS011;45999;48.808;9.182;2023-02-26T00:43:34;2.70;;;1.90;;
146;SDS011;45999;48.808;9.182;2023-02-26T00:49:02;2.13;;;1.70;;
146;SDS011;45999;48.808;9.182;2023-02-26T00:51:55;4.13;;;1.60;;
146;SDS011;45999;48.808;9.182;2023-02-26T00:54:25;2.83;;;2.00;;
146;SDS011;45999;48.808;9.182;2023-02-26T00:56:54;3.17;;;1.80;;
146;SDS011;45999;48.808;9.182;2023-02-26T00:59:22;2.30;;;1.70;;
146;SDS011;45999;48.808;9.182;2023-02-26T01:01:49;2.70;;;1.60;;
146;SDS011;45999;48.808;9.182;2023-02-26T01:04:17;3.07;;;1.97;;
146;SDS011;45999;48.808;9.182;2023-02-26T01:06:47;3.03;;;1.50;;
146;SDS011;45999;48.808;9.182;2023-02-26T01:09:20;1.93;;;1.40;;
146;SDS011;45999;48.808;9.182;2023-02-26T01:11:51;4.57;;;1.70;;
146;SDS011;45999;48.808;9.182;2023-02-26T01:14:19;3.33;;;1.80;;
146;SDS011;45999;48.808;9.182;2023-02-26T01:16:48;3.83;;;2.00;;
146;SDS011;45999;48.808;9.182;2023-02-26T01:19:17;3.40;;;1.80;;
146;SDS011;45999;48.808;9.182;2023-02-26T01:21:54;2.53;;;1.70;;
146;SDS011;45999;48.808;9.182;2023-02-26T01:24:27;5.80;;;1.80;;
146;SDS011;45999;48.808;9.182;2023-02-26T01:26:55;4.33;;;1.47;;
146;SDS011;45999;48.808;9.182;2023-02-26T01:29:22;2.53;;;1.77;;
146;SDS011;45999;48.808;9.182;2023-02-26T01:34:47;4.57;;;2.07;;
146;SDS011;45999;48.808;9.182;2023-02-26T01:37:28;2.63;;;1.57;;
146;SDS011;45999;48.808;9.182;2023-02-26T01:43:01;5.27;;;1.80;;
146;SDS011;45999;48.808;9.182;2023-02-26T01:45:34;2.53;;;1.80;;
146;SDS011;45999;48.808;9.182;2023-02-26T01:48:12;3.80;;;1.90;;
146;SDS011;45999;48.808;9.182;2023-02-26T01:50:50;3.40;;;1.90;;
146;SDS011;45999;48.808;9.182;2023-02-26T01:53:17;3.47;;;1.80;;
146;SDS011;45999;48.808;9.182;2023-02-26T01:55:54;3.17;;;1.93;;
146;SDS011;45999;48.808;9.182;2023-02-26T01:58:23;3.63;;;1.87;;
146;SDS011;45999;48.808;9.182;2023-02-26T02:00:52;5.23;;;1.90;;
146;SDS011;45999;48.808;9.182;2023-02-26T02:03:19;3.03;;;1.60;;
146;SDS011;45999;48.808;9.182;2023-02-26T02:05:57;6.10;;;1.80;;
146;SDS011;45999;48.808;9.182;2023-02-26T02:08:29;2.47;;;1.50;;
146;SDS011;45999;48.808;9.182;2023-02-26T02:10:59;4.10;;;1.90;;
146;SDS011;45999;48.808;9.182;2023-02-26T02:13:29;1.73;;;1.40;;
146;SDS011;45999;48.808;9.182;2023-02-26T02:25:31;3.10;;;1.80;;
146;SDS011;45999;48.808;9.182;2023-02-26T02:27:56;3.23;;;1.43;;
146;SDS011;45999;48.808;9.182;2023-02-26T02:30:27;3.93;;;1.80;;
146;SDS011;45999;48.808;9.182;2023-02-26T02:33:04;3.97;;;1.80;;
146;SDS011;45999;48.808;9.182;2023-02-26T02:35:49;3.33;;;1.40;;
146;SDS011;45999;48.808;9.182;2023-02-26T02:38:25;2.00;;;1.53;;
146;SDS011;45999;48.808;9.182;2023-02-26T02:41:04;2.93;;;1.70;;
146;SDS011;45999;48.808;9.182;2023-02-26T02:43:40;3.93;;;1.70;;
146;SDS011;45999;48.808;9.182;2023-02-26T02:46:10;3.43;;;1.93;;
146;SDS011;45999;48.808;9.182;2023-02-26T02:51:50;3.73;;;1.57;;
146;SDS011;45999;48.808;9.182;2023-02-26T02:54:26;2.87;;;1.90;;
146;SDS011;45999;48.808;9.182;2023-02-26T02:57:03;3.10;;;1.97;;
146;SDS011;45999;48.808;9.182;2023-02-26T03:02:09;4.47;;;1.73;;
146;SDS011;45999;48.808;9.182;2023-02-26T03:04:40;5.90;;;1.83;;
146;SDS011;45999;48.808;9.182;2023-02-26T03:07:07;4.27;;;1.80;;
146;SDS011;45999;48.808;9.182;2023-02-26T03:09:34;1.90;;;1.57;;
146;SDS011;45999;48.808;9.182;2023-02-26T03:12:01;3.40;;;1.77;;
146;SDS011;45999;48.808;9.182;2023-02-26T03:14:27;4.87;;;1.90;;
146;SDS011;45999;48.808;9.182;2023-02-26T03:22:22;4.90;;;1.57;;
146;SDS011;45999;48.808;9.182;2023-02-26T03:27:45;3.40;;;1.70;;
146;SDS011;45999;48.808;9.182;2023-02-26T03:30:19;5.60;;;1.93;;
146;SDS011;45999;48.808;9.182;2023-02-26T03:33:00;3.50;;;1.80;;
146;SDS011;45999;48.808;9.182;2023-02-26T03:35:46;4.10;;;2.07;;
146;SDS011;45999;48.808;9.182;2023-02-26T03:38:44;3.43;;;1.67;;
146;SDS011;45999;48.808;9.182;2023-02-26T03:41:35;5.73;;;1.87;;
146;SDS011;45999;48.808;9.182;2023-02-26T03:44:08;2.93;;;1.80;;
146;SDS011;45999;48.808;9.182;2023-02-26T03:46:44;4.67;;;1.80;;
146;SDS011;45999;48.808;9.182;2023-02-26T03:49:19;6.27;;;1.70;;
146;SDS011;45999;48.808;9.182;2023-02-26T03:51:51;5.43;;;2.13;;
146;SDS011;45999;48.808;9.182;2023-02-26T03:54:30;3.87;;;1.90;;
146;SDS011;45999;48.808;9.182;2023-02-26T03:56:59;3.53;;;1.70;;
146;SDS011;45999;48.808;9.182;2023-02-26T03:59:26;6.53;;;1.90;;
146;SDS011;45999;48.808;9.182;2023-02-26T04:02:09;4.00;;;2.10;;
146;SDS011;45999;48.808;9.182;2023-02-26T04:04:52;4.33;;;1.90;;
146;SDS011;45999;48.808;9.182;2023-02-26T04:07:22;5.63;;;1.83;;
146;SDS011;45999;48.808;9.182;2023-02-26T04:09:49;3.60;;;1.90;;
146;SDS011;45999;48.808;9.182;2023-02-26T04:12:34;5.93;;;1.80;;
146;SDS011;45999;48.808;9.182;2023-02-26T04:15:01;3.20;;;2.00;;
146;SDS011;45999;48.808;9.182;2023-02-26T04:17:29;2.53;;;1.70;;
146;SDS011;45999;48.808;9.182;2023-02-26T04:19:55;2.70;;;1.63;;
146;SDS011;45999;48.808;9.182;2023-02-26T04:22:22;4.73;;;2.10;;
146;SDS011;45999;48.808;9.182;2023-02-26T04:24:48;2.80;;;1.70;;
146;SDS011;45999;48.808;9.182;2023-02-26T04:27:14;3.83;;;2.00;;
146;SDS011;45999;48.808;9.182;2023-02-26T04:29:41;5.53;;;1.87;;
146;SDS011;45999;48.808;9.182;2023-02-26T04:32:07;4.23;;;1.97;;
146;SDS011;45999;48.808;9.182;2023-02-26T04:34:33;5.13;;;1.90;;
146;SDS011;45999;48.808;9.182;2023-02-26T04:37:00;2.60;;;1.73;;
146;SDS011;45999;48.808;9.182;2023-02-26T04:39:26;3.37;;;1.93;;
146;SDS011;45999;48.808;9.182;2023-02-26T04:41:53;2.47;;;1.50;;
146;SDS011;45999;48.808;9.182;2023-02-26T04:44:19;3.93;;;2.13;;
146;SDS011;45999;48.808;9.182;2023-02-26T04:46:45;4.23;;;1.93;;
146;SDS011;45999;48.808;9.182;2023-02-26T04:49:12;3.17;;;1.80;;
146;SDS011;45999;48.808;9.182;2023-02-26T04:51:38;3.97;;;2.17;;
146;SDS011;45999;48.808;9.182;2023-02-26T04:54:04;6.87;;;1.63;;
146;SDS011;45999;48.808;9.182;2023-02-26T04:56:31;3.43;;;1.83;;
146;SDS011;45999;48.808;9.182;2023-02-26T04:58:57;3.30;;;1.77;;
146;SDS011;45999;48.808;9.182;2023-02-26T05:01:24;2.23;;;1.60;;
146;SDS011;45999;48.808;9.182;2023-02-26T05:03:50;4.50;;;1.70;;
146;SDS011;45999;48.808;9.182;2023-02-26T05:06:16;2.07;;;1.53;;
146;SDS011;45999;48.808;9.182;2023-02-26T05:08:43;4.53;;;1.67;;
146;SDS011;45999;48.808;9.182;2023-02-26T05:11:09;3.47;;;1.80;;
146;SDS011;45999;48.808;9.182;2023-02-26T05:13:37;2.23;;;1.60;;
146;SDS011;45999;48.808;9.182;2023-02-26T05:16:04;2.43;;;1.40;;
146;SDS011;45999;48.808;9.182;2023-02-26T05:18:32;2.27;;;1.63;;
146;SDS011;45999;48.808;9.182;2023-02-26T05:20:58;2.13;;;1.50;;
146;SDS011;45999;48.808;9.182;2023-02-26T05:23:25;3.40;;;1.70;;
146;SDS011;45999;48.808;9.182;2023-02-26T05:25:56;3.53;;;1.50;;
146;SDS011;45999;48.808;9.182;2023-02-26T05:28:25;2.57;;;1.70;;
146;SDS011;45999;48.808;9.182;2023-02-26T05:30:52;6.90;;;1.63;;
146;SDS011;45999;48.808;9.182;2023-02-26T05:33:19;2.87;;;1.57;;
146;SDS011;45999;48.808;9.182;2023-02-26T05:35:45;3.67;;;1.57;;
146;SDS011;45999;48.808;9.182;2023-02-26T05:38:12;5.50;;;1.90;;
146;SDS011;45999;48.808;9.182;2023-02-26T05:40:38;3.37;;;1.90;;
146;SDS011;45999;48.808;9.182;2023-02-26T05:43:05;5.03;;;1.60;;
146;SDS011;45999;48.808;9.182;2023-02-26T05:45:31;5.83;;;1.97;;
146;SDS011;45999;48.808;9.182;2023-02-26T05:47:58;3.23;;;1.70;;
146;SDS011;45999;48.808;9.182;2023-02-26T05:50:24;5.73;;;1.93;;
146;SDS011;45999;48.808;9.182;2023-02-26T05:52:51;2.97;;;1.90;;
146;SDS011;45999;48.808;9.182;2023-02-26T05:55:17;4.23;;;2.40;;
146;SDS011;45999;48.808;9.182;2023-02-26T05:57:44;3.50;;;1.77;;
146;SDS011;45999;48.808;9.182;2023-02-26T06:00:10;6.17;;;2.30;;
146;SDS011;45999;48.808;9.182;2023-02-26T06:02:37;6.73;;;1.93;;
146;SDS011;45999;48.808;9.182;2023-02-26T06:05:04;4.53;;;1.80;;
146;SDS011;45999;48.808;9.182;2023-02-26T06:07:30;3.87;;;2.13;;
146;SDS011;45999;48.808;9.182;2023-02-26T06:09:57;4.10;;;2.33;;
146;SDS011;45999;48.808;9.182;2023-02-26T06:12:23;2.87;;;2.00;;
146;SDS011;45999;48.808;9.182;2023-02-26T06:14:49;2.47;;;1.77;;
146;SDS011;45999;48.808;9.182;2023-02-26T06:17:16;6.17;;;2.27;;
146;SDS011;45999;48.808;9.182;2023-02-26T06:19:42;4.93;;;2.27;;
146;SDS011;45999;48.808;9.182;2023-02-26T06:22:09;3.77;;;2.20;;
146;SDS011;45999;48.808;9.182;2023-02-26T06:24:36;3.00;;;1.77;;
146;SDS011;45999;48.808;9.182;2023-02-26T06:27:02;7.07;;;2.10;;
146;SDS011;45999;48.808;9.182;2023-02-26T06:29:28;2.57;;;1.73;;
146;SDS011;45999;48.808;9.182;2023-02-26T06:31:55;3.43;;;1.90;;
146;SDS011;45999;48.808;9.182;2023-02-26T06:34:21;2.13;;;1.70;;
146;SDS011;45999;48.808;9.182;2023-02-26T06:36:47;5.33;;;2.00;;
146;SDS011;45999;48.808;9.182;2023-02-26T06:39:14;3.83;;;1.77;;
146;SDS011;45999;48.808;9.182;2023-02-26T06:41:40;3.13;;;1.90;;
146;SDS011;45999;48.808;9.182;2023-02-26T06:44:07;4.73;;;2.40;;
146;SDS011;45999;48.808;9.182;2023-02-26T06:46:34;2.93;;;1.80;;
146;SDS011;45999;48.808;9.182;2023-02-26T06:49:01;3.13;;;2.10;;
146;SDS011;45999;48.808;9.182;2023-02-26T06:51:27;2.63;;;1.80;;
146;SDS011;45999;48.808;9.182;2023-02-26T06:53:54;2.90;;;1.70;;
146;SDS011;45999;48.808;9.182;2023-02-26T06:56:21;3.30;;;1.97;;
146;SDS011;45999;48.808;9.182;2023-02-26T06:58:48;3.87;;;1.93;;
146;SDS011;45999;48.808;9.182;2023-02-26T07:01:15;3.33;;;2.07;;
146;SDS011;45999;48.808;9.182;2023-02-26T07:03:41;2.97;;;2.00;;
146;SDS011;45999;48.808;9.182;2023-02-26T07:06:08;4.53;;;1.90;;
146;SDS011;45999;48.808;9.182;2023-02-26T07:08:36;4.33;;;2.20;;
146;SDS011;45999;48.808;9.182;2023-02-26T07:11:03;4.60;;;1.90;;
146;SDS011;45999;48.808;9.182;2023-02-26T07:13:30;4.27;;;1.87;;
146;SDS011;45999;48.808;9.182;2023-02-26T07:15:56;4.60;;;1.93;;
146;SDS011;45999;48.808;9.182;2023-02-26T07:18:23;3.30;;;2.07;;
146;SDS011;45999;48.808;9.182;2023-02-26T07:20:49;2.83;;;1.97;;
146;SDS011;45999;48.808;9.182;2023-02-26T07:23:16;2.13;;;1.93;;
146;SDS011;45999;48.808;9.182;2023-02-26T07:25:42;4.07;;;1.90;;
146;SDS011;45999;48.808;9.182;2023-02-26T07:28:08;3.70;;;1.53;;
146;SDS011;45999;48.808;9.182;2023-02-26T07:30:35;3.80;;;2.13;;
146;SDS011;45999;48.808;9.182;2023-02-26T07:33:01;3.73;;;2.27;;
146;SDS011;45999;48.808;9.182;2023-02-26T07:35:28;4.20;;;1.50;;
146;SDS011;45999;48.808;9.182;2023-02-26T07:37:54;4.07;;;1.97;;
146;SDS011;45999;48.808;9.182;2023-02-26T07:40:20;7.53;;;2.20;;
146;SDS011;45999;48.808;9.182;2023-02-26T07:42:47;4.00;;;1.87;;
146;SDS011;45999;48.808;9.182;2023-02-26T07:45:13;2.63;;;1.77;;
146;SDS011;45999;48.808;9.182;2023-02-26T07:47:42;4.13;;;2.10;;
146;SDS011;45999;48.808;9.182;2023-02-26T07:50:09;3.83;;;1.50;;
146;SDS011;45999;48.808;9.182;2023-02-26T07:52:36;3.27;;;1.67;;
146;SDS011;45999;48.808;9.182;2023-02-26T07:55:02;6.30;;;2.00;;
146;SDS011;45999;48.808;9.182;2023-02-26T07:57:29;4.03;;;1.67;;
146;SDS011;45999;48.808;9.182;2023-02-26T07:59:55;3.47;;;1.57;;
146;SDS011;45999;48.808;9.182;2023-02-26T08:02:21;4.77;;;1.93;;
146;SDS011;45999;48.808;9.182;2023-02-26T08:04:48;4.53;;;1.60;;
146;SDS011;45999;48.808;9.182;2023-02-26T08:07:14;3.40;;;1.63;;
146;SDS011;45999;48.808;9.182;2023-02-26T08:09:41;4.53;;;1.33;;
146;SDS011;45999;48.808;9.182;2023-02-26T08:12:07;5.27;;;1.80;;
146;SDS011;45999;48.808;9.182;2023-02-26T08:14:33;3.70;;;1.63;;
146;SDS011;45999;48.808;9.182;2023-02-26T08:17:00;4.73;;;1.40;;
146;SDS011;45999;48.808;9.182;2023-02-26T08:19:26;1.90;;;1.40;;
146;SDS011;45999;48.808;9.182;2023-02-26T08:21:52;2.67;;;1.30;;
146;SDS011;45999;48.808;9.182;2023-02-26T08:24:20;3.07;;;1.50;;
146;SDS011;45999;48.808;9.182;2023-02-26T08:26:47;3.37;;;1.53;;
146;SDS011;45999;48.808;9.182;2023-02-26T08:29:13;5.00;;;1.70;;
146;SDS011;45999;48.808;9.182;2023-02-26T08:31:40;4.60;;;1.60;;
146;SDS011;45999;48.808;9.182;2023-02-26T08:34:06;4.30;;;1.40;;
146;SDS011;45999;48.808;9.182;2023-02-26T08:36:32;2.47;;;1.60;;
146;SDS011;45999;48.808;9.182;2023-02-26T08:38:59;1.80;;;1.30;;
146;SDS011;45999;48.808;9.182;2023-02-26T08:41:25;3.17;;;1.53;;
146;SDS011;45999;48.808;9.182;2023-02-26T08:43:54;1.80;;;1.27;;
146;SDS011;45999;48.808;9.182;2023-02-26T08:46:20;3.50;;;1.60;;
146;SDS011;45999;48.808;9.182;2023-02-26T08:48:47;2.27;;;1.57;;
146;SDS011;45999;48.808;9.182;2023-02-26T08:51:13;5.17;;;1.57;;
146;SDS011;45999;48.808;9.182;2023-02-26T08:53:39;3.10;;;1.57;;
146;SDS011;45999;48.808;9.182;2023-02-26T08:56:09;5.33;;;1.73;;
146;SDS011;45999;48.808;9.182;2023-02-26T08:58:35;5.73;;;2.60;;
146;SDS011;45999;48.808;9.182;2023-02-26T09:01:01;5.07;;;1.60;;
146;SDS011;45999;48.808;9.182;2023-02-26T09:03:28;3.03;;;1.50;;
146;SDS011;45999;48.808;9.182;2023-02-26T09:05:54;1.80;;;1.30;;
146;SDS011;45999;48.808;9.182;2023-02-26T09:08:21;1.27;;;1.00;;
146;SDS011;45999;48.808;9.182;2023-02-26T09:10:47;3.23;;;1.20;;
146;SDS011;45999;48.808;9.182;2023-02-26T09:13:13;3.30;;;1.60;;
146;SDS011;45999;48.808;9.182;2023-02-26T09:15:40;1.90;;;1.13;;
146;SDS011;45999;48.808;9.182;2023-02-26T09:18:07;2.17;;;1.50;;
146;SDS011;45999;48.808;9.182;2023-02-26T09:20:39;2.23;;;1.20;;
146;SDS011;45999;48.808;9.182;2023-02-26T09:23:08;2.03;;;1.40;;
146;SDS011;45999;48.808;9.182;2023-02-26T09:25:35;3.87;;;1.57;;
146;SDS011;45999;48.808;9.182;2023-02-26T09:28:02;4.27;;;1.60;;
146;SDS011;45999;48.808;9.182;2023-02-26T09:30:28;3.87;;;1.27;;
146;SDS011;45999;48.808;9.182;2023-02-26T09:32:55;3.47;;;1.43;;
146;SDS011;45999;48.808;9.182;2023-02-26T09:35:22;2.10;;;1.30;;
146;SDS011;45999;48.808;9.182;2023-02-26T09:37:48;1.70;;;1.30;;
146;SDS011;45999;48.808;9.182;2023-02-26T09:45:40;3.93;;;1.40;;
146;SDS011;45999;48.808;9.182;2023-02-26T09:48:09;5.30;;;1.53;;
146;SDS011;45999;48.808;9.182;2023-02-26T09:50:41;2.87;;;1.37;;
146;SDS011;45999;48.808;9.182;2023-02-26T09:53:21;3.47;;;1.30;;
146;SDS011;45999;48.808;9.182;2023-02-26T09:55:53;3.30;;;1.50;;
146;SDS011;45999;48.808;9.182;2023-02-26T09:58:35;2.60;;;1.20;;
146;SDS011;45999;48.808;9.182;2023-02-26T10:12:32;4.67;;;1.40;;
146;SDS011;45999;48.808;9.182;2023-02-26T10:18:24;2.27;;;1.20;;
146;SDS011;45999;48.808;9.182;2023-02-26T10:21:00;2.83;;;1.50;;
146;SDS011;45999;48.808;9.182;2023-02-26T10:39:51;1.53;;;1.07;;
146;SDS011;45999;48.808;9.182;2023-02-26T10:42:39;1.13;;;1.03;;
146;SDS011;45999;48.808;9.182;2023-02-26T10:47:53;3.20;;;1.27;;
146;SDS011;45999;48.808;9.182;2023-02-26T10:50:22;3.47;;;1.23;;
146;SDS011;45999;48.808;9.182;2023-02-26T10:52:50;1.00;;;0.90;;
146;SDS011;45999;48.808;9.182;2023-02-26T10:58:02;1.70;;;1.30;;
146;SDS011;45999;48.808;9.182;2023-02-26T11:00:31;1.40;;;0.93;;
146;SDS011;45999;48.808;9.182;2023-02-26T11:03:00;2.20;;;1.20;;
146;SDS011;45999;48.808;9.182;2023-02-26T11:05:29;2.50;;;1.00;;
146;SDS011;45999;48.808;9.182;2023-02-26T11:08:02;2.60;;;1.10;;
146;SDS011;45999;48.808;9.182;2023-02-26T11:10:39;3.63;;;1.50;;
146;SDS011;45999;48.808;9.182;2023-02-26T11:13:20;1.67;;;1.10;;
146;SDS011;45999;48.808;9.182;2023-02-26T11:15:49;1.87;;;1.27;;
146;SDS011;45999;48.808;9.182;2023-02-26T11:18:19;1.53;;;1.07;;
146;SDS011;45999;48.808;9.182;2023-02-26T11:20:49;1.00;;;0.83;;
146;SDS011;45999;48.808;9.182;2023-02-26T11:23:20;3.87;;;1.10;;
146;SDS011;45999;48.808;9.182;2023-02-26T11:26:03;3.87;;;1.10;;
146;SDS011;45999;48.808;9.182;2023-02-26T11:31:08;2.37;;;1.10;;
146;SDS011;45999;48.808;9.182;2023-02-26T11:34:22;3.47;;;1.23;;
146;SDS011;45999;48.808;9.182;2023-02-26T11:36:31;0.90;;;0.70;;
146;SDS011;45999;48.808;9.182;2023-02-26T11:39:14;1.17;;;0.70;;
146;SDS011;45999;48.808;9.182;2023-02-26T11:41:44;0.73;;;0.73;;
146;SDS011;45999;48.808;9.182;2023-02-26T11:44:13;2.37;;;1.00;;
146;SDS011;45999;48.808;9.182;2023-02-26T11:46:44;5.17;;;1.00;;
146;SDS011;45999;48.808;9.182;2023-02-26T11:49:15;1.17;;;0.80;;
146;SDS011;45999;48.808;9.182;2023-02-26T11:51:44;1.10;;;1.00;;
146;SDS011;45999;48.808;9.182;2023-02-26T11:54:22;1.13;;;1.00;;
146;SDS011;45999;48.808;9.182;2023-02-26T11:56:51;1.07;;;0.93;;
146;SDS011;45999;48.808;9.182;2023-02-26T11:59:26;2.47;;;0.70;;
146;SDS011;45999;48.808;9.182;2023-02-26T12:02:01;0.90;;;0.90;;
146;SDS011;45999;48.808;9.182;2023-02-26T12:04:38;0.77;;;0.77;;
146;SDS011;45999;48.808;9.182;2023-02-26T12:07:10;0.57;;;0.57;;
146;SDS011;45999;48.808;9.182;2023-02-26T12:09:39;0.87;;;0.80;;
146;SDS011;45999;48.808;9.182;2023-02-26T12:12:20;0.70;;;0.70;;
146;SDS011;45999;48.808;9.182;2023-02-26T12:15:08;1.03;;;0.70;;
146;SDS011;45999;48.808;9.182;2023-02-26T12:23:05;1.00;;;0.93;;
146;SDS011;45999;48.808;9.182;2023-02-26T12:25:57;0.90;;;0.87;;
146;SDS011;45999;48.808;9.182;2023-02-26T12:34:29;0.87;;;0.87;;
146;SDS011;45999;48.808;9.182;2023-02-26T12:42:24;1.07;;;1.00;;
146;SDS011;45999;48.808;9.182;2023-02-26T12:45:23;0.87;;;0.87;;
146;SDS011;45999;48.808;9.182;2023-02-26T12:48:41;1.90;;;0.97;;
146;SDS011;45999;48.808;9.182;2023-02-26T12:51:12;0.60;;;0.60;;
146;SDS011;45999;48.808;9.182;2023-02-26T12:54:05;0.90;;;0.90;;
146;SDS011;45999;48.808;9.182;2023-02-26T12:57:02;0.93;;;0.93;;
146;SDS011;45999;48.808;9.182;2023-02-26T13:11:27;1.00;;;0.80;;
146;SDS011;45999;48.808;9.182;2023-02-26T13:16:58;1.43;;;1.00;;
146;SDS011;45999;48.808;9.182;2023-02-26T13:22:19;0.70;;;0.70;;
146;SDS011;45999;48.808;9.182;2023-02-26T13:24:54;1.07;;;1.00;;
146;SDS011;45999;48.808;9.182;2023-02-26T13:27:31;0.70;;;0.57;;
146;SDS011;45999;48.808;9.182;2023-02-26T13:32:35;0.70;;;0.70;;
146;SDS011;45999;48.808;9.182;2023-02-26T13:35:05;2.33;;;0.60;;
146;SDS011;45999;48.808;9.182;2023-02-26T13:37:40;0.80;;;0.80;;
146;SDS011;45999;48.808;9.182;2023-02-26T13:46:17;0.83;;;0.70;;
146;SDS011;45999;48.808;9.182;2023-02-26T13:51:48;0.60;;;0.60;;
146;SDS011;45999;48.808;9.182;2023-02-26T13:56:58;0.80;;;0.60;;
146;SDS011;45999;48.808;9.182;2023-02-26T14:02:43;0.60;;;0.60;;
146;SDS011;45999;48.808;9.182;2023-02-26T14:08:15;0.80;;;0.80;;
146;SDS011;45999;48.808;9.182;2023-02-26T14:10:55;0.60;;;0.60;;
146;SDS011;45999;48.808;9.182;2023-02-26T14:13:32;1.70;;;0.80;;
146;SDS011;45999;48.808;9.182;2023-02-26T14:16:19;0.87;;;0.80;;
146;SDS011;45999;48.808;9.182;2023-02-26T14:18:51;1.70;;;0.90;;
146;SDS011;45999;48.808;9.182;2023-02-26T14:24:59;1.00;;;0.73;;
146;SDS011;45999;48.808;9.182;2023-02-26T14:27:39;0.60;;;0.60;;
146;SDS011;45999;48.808;9.182;2023-02-26T14:35:16;0.50;;;0.50;;
146;SDS011;45999;48.808;9.182;2023-02-26T14:37:49;1.50;;;0.70;;
146;SDS011;45999;48.808;9.182;2023-02-26T14:40:29;0.67;;;0.50;;
146;SDS011;45999;48.808;9.182;2023-02-26T14:43:04;0.60;;;0.60;;
146;SDS011;45999;48.808;9.182;2023-02-26T14:45:37;1.13;;;0.60;;
146;SDS011;45999;48.808;9.182;2023-02-26T14:48:10;0.60;;;0.60;;
146;SDS011;45999;48.808;9.182;2023-02-26T14:50:57;1.33;;;0.53;;
146;SDS011;45999;48.808;9.182;2023-02-26T14:59:29;0.80;;;0.60;;
146;SDS011;45999;48.808;9.182;2023-02-26T15:06:09;0.63;;;0.50;;
146;SDS011;45999;48.808;9.182;2023-02-26T15:08:46;0.60;;;0.60;;
146;SDS011;45999;48.808;9.182;2023-02-26T15:11:40;0.93;;;0.50;;
146;SDS011;45999;48.808;9.182;2023-02-26T15:17:13;1.03;;;0.67;;
146;SDS011;45999;48.808;9.182;2023-02-26T15:25:04;0.50;;;0.50;;
146;SDS011;45999;48.808;9.182;2023-02-26T15:27:36;1.07;;;0.80;;
146;SDS011;45999;48.808;9.182;2023-02-26T15:30:03;0.60;;;0.60;;
146;SDS011;45999;48.808;9.182;2023-02-26T15:32:30;1.00;;;0.80;;
146;SDS011;45999;48.808;9.182;2023-02-26T15:37:47;0.70;;;0.60;;
146;SDS011;45999;48.808;9.182;2023-02-26T15:40:22;3.03;;;0.70;;
146;SDS011;45999;48.808;9.182;2023-02-26T15:42:50;0.60;;;0.60;;
146;SDS011;45999;48.808;9.182;2023-02-26T15:47:58;0.60;;;0.60;;
146;SDS011;45999;48.808;9.182;2023-02-26T15:50:28;1.57;;;0.70;;
146;SDS011;45999;48.808;9.182;2023-02-26T15:53:01;2.17;;;0.80;;
146;SDS011;45999;48.808;9.182;2023-02-26T15:55:42;0.80;;;0.60;;
146;SDS011;45999;48.808;9.182;2023-02-26T15:58:18;1.33;;;0.53;;
146;SDS011;45999;48.808;9.182;2023-02-26T16:00:51;0.50;;;0.50;;
146;SDS011;45999;48.808;9.182;2023-02-26T16:03:26;1.20;;;0.60;;
146;SDS011;45999;48.808;9.182;2023-02-26T16:05:55;0.47;;;0.47;;
146;SDS011;45999;48.808;9.182;2023-02-26T16:08:23;0.90;;;0.67;;
146;SDS011;45999;48.808;9.182;2023-02-26T16:10:51;0.50;;;0.50;;
146;SDS011;45999;48.808;9.182;2023-02-26T16:13:26;1.07;;;0.70;;
146;SDS011;45999;48.808;9.182;2023-02-26T16:15:58;0.80;;;0.47;;
146;SDS011;45999;48.808;9.182;2023-02-26T16:18:26;0.47;;;0.47;;
146;SDS011;45999;48.808;9.182;2023-02-26T16:20:55;0.67;;;0.63;;
146;SDS011;45999;48.808;9.182;2023-02-26T16:23:32;0.87;;;0.63;;
146;SDS011;45999;48.808;9.182;2023-02-26T16:26:05;0.60;;;0.60;;
146;SDS011;45999;48.808;9.182;2023-02-26T16:28:43;1.20;;;0.77;;
146;SDS011;45999;48.808;9.182;2023-02-26T16:31:14;1.10;;;0.53;;
146;SDS011;45999;48.808;9.182;2023-02-26T16:33:49;2.20;;;0.60;;
146;SDS011;45999;48.808;9.182;2023-02-26T16:36:19;0.67;;;0.67;;
146;SDS011;45999;48.808;9.182;2023-02-26T16:38:55;1.90;;;0.60;;
146;SDS011;45999;48.808;9.182;2023-02-26T16:41:25;2.30;;;0.60;;
146;SDS011;45999;48.808;9.182;2023-02-26T16:43:56;1.00;;;0.70;;
146;SDS011;45999;48.808;9.182;2023-02-26T16:49:28;2.77;;;0.53;;
146;SDS011;45999;48.808;9.182;2023-02-26T16:51:59;0.60;;;0.60;;
146;SDS011;45999;48.808;9.182;2023-02-26T16:54:29;1.83;;;0.77;;
146;SDS011;45999;48.808;9.182;2023-02-26T16:57:02;0.50;;;0.50;;
146;SDS011;45999;48.808;9.182;2023-02-26T16:59:32;0.87;;;0.60;;
146;SDS011;45999;48.808;9.182;2023-02-26T17:02:11;1.37;;;0.50;;
146;SDS011;45999;48.808;9.182;2023-02-26T17:04:42;1.00;;;0.60;;
146;SDS011;45999;48.808;9.182;2023-02-26T17:07:54;1.80;;;0.60;;
146;SDS011;45999;48.808;9.182;2023-02-26T17:10:21;0.67;;;0.63;;
146;SDS011;45999;48.808;9.182;2023-02-26T17:12:53;1.10;;;0.60;;
146;SDS011;45999;48.808;9.182;2023-02-26T17:15:35;0.93;;;0.70;;
146;SDS011;45999;48.808;9.182;2023-02-26T17:18:02;0.53;;;0.53;;
146;SDS011;45999;48.808;9.182;2023-02-26T17:20:29;1.20;;;0.60;;
146;SDS011;45999;48.808;9.182;2023-02-26T17:22:58;0.83;;;0.80;;
146;SDS011;45999;48.808;9.182;2023-02-26T17:25:29;1.10;;;0.67;;
146;SDS011;45999;48.808;9.182;2023-02-26T17:28:00;0.73;;;0.60;;
146;SDS011;45999;48.808;9.182;2023-02-26T17:30:27;1.13;;;0.60;;
146;SDS011;45999;48.808;9.182;2023-02-26T17:32:57;1.40;;;0.93;;
146;SDS011;45999;48.808;9.182;2023-02-26T17:35:24;0.80;;;0.80;;
146;SDS011;45999;48.808;9.182;2023-02-26T17:37:51;0.60;;;0.60;;
146;SDS011;45999;48.808;9.182;2023-02-26T17:40:23;1.17;;;0.80;;
146;SDS011;45999;48.808;9.182;2023-02-26T17:42:51;1.23;;;0.70;;
146;SDS011;45999;48.808;9.182;2023-02-26T17:45:18;2.07;;;0.70;;
146;SDS011;45999;48.808;9.182;2023-02-26T17:47:46;0.83;;;0.70;;
146;SDS011;45999;48.808;9.182;2023-02-26T17:52:53;0.80;;;0.60;;
146;SDS011;45999;48.808;9.182;2023-02-26T17:55:19;0.93;;;0.70;;
146;SDS011;45999;48.808;9.182;2023-02-26T17:57:46;0.80;;;0.80;;
146;SDS011;45999;48.808;9.182;2023-02-26T18:00:14;0.67;;;0.60;;
146;SDS011;45999;48.808;9.182;2023-02-26T18:02:41;0.80;;;0.53;;
146;SDS011;45999;48.808;9.182;2023-02-26T18:05:08;1.17;;;0.80;;
146;SDS011;45999;48.808;9.182;2023-02-26T18:07:35;1.10;;;0.60;;
146;SDS011;45999;48.808;9.182;2023-02-26T18:10:03;0.93;;;0.63;;
146;SDS011;45999;48.808;9.182;2023-02-26T18:12:30;1.33;;;0.63;;
146;SDS011;45999;48.808;9.182;2023-02-26T18:14:57;0.43;;;0.43;;
146;SDS011;45999;48.808;9.182;2023-02-26T18:17:24;1.30;;;0.77;;
146;SDS011;45999;48.808;9.182;2023-02-26T18:19:53;1.33;;;0.50;;
146;SDS011;45999;48.808;9.182;2023-02-26T18:22:20;0.63;;;0.50;;
146;SDS011;45999;48.808;9.182;2023-02-26T18:24:49;0.50;;;0.50;;
146;SDS011;45999;48.808;9.182;2023-02-26T18:27:18;0.90;;;0.53;;